sensor_id;sensor_type;location;lat;lon;timestamp;temperature;humidity
23801;DHT22;12081;48.614;10.226;2023-05-19T00:00:23;10.20;99.90
23801;DHT22;12081;48.614;10.226;2023-05-19T00:03:07;10.20;99.90
23801;DHT22;12081;48.614;10.226;2023-05-19T00:05:52;10.10;99.90
23801;DHT22;12081;48.614;10.226;2023-05-19T00:08:37;10.10;99.90
23801;DHT22;12081;48.614;10.226;2023-05-19T00:11:22;10.10;99.90
23801;DHT22;12081;48.614;10.226;2023-05-19T00:14:08;10.10;99.90
23801;DHT22;12081;48.614;10.226;2023-05-19T00:19:39;10.00;99.90
23801;DHT22;12081;48.614;10.226;2023-05-19T00:25:08;9.80;99.90
23801;DHT22;12081;48.614;10.226;2023-05-19T00:27:53;10.10;99.90
23801;DHT22;12081;48.614;10.226;2023-05-19T00:33:22;9.90;99.90
23801;DHT22;12081;48.614;10.226;2023-05-19T00:36:07;9.70;99.90
23801;DHT22;12081;48.614;10.226;2023-05-19T00:38:51;9.70;99.90
23801;DHT22;12081;48.614;10.226;2023-05-19T00:41:35;10.40;99.90
23801;DHT22;12081;48.614;10.226;2023-05-19T00:44:19;10.80;99.90
23801;DHT22;12081;48.614;10.226;2023-05-19T00:47:04;9.60;99.90
23801;DHT22;12081;48.614;10.226;2023-05-19T00:55:19;9.40;99.90
23801;DHT22;12081;48.614;10.226;2023-05-19T00:58:05;9.40;99.90
23801;DHT22;12081;48.614;10.226;2023-05-19T01:00:50;9.40;99.90
23801;DHT22;12081;48.614;10.226;2023-05-19T01:03:35;9.30;99.90
23801;DHT22;12081;48.614;10.226;2023-05-19T01:06:19;9.20;99.90
23801;DHT22;12081;48.614;10.226;2023-05-19T01:09:05;9.50;99.90
23801;DHT22;12081;48.614;10.226;2023-05-19T01:14:33;9.10;99.90
23801;DHT22;12081;48.614;10.226;2023-05-19T01:20:26;9.50;99.90
23801;DHT22;12081;48.614;10.226;2023-05-19T01:24:06;9.60;99.90
23801;DHT22;12081;48.614;10.226;2023-05-19T01:35:17;9.30;99.90
23801;DHT22;12081;48.614;10.226;2023-05-19T01:38:03;9.50;99.90
23801;DHT22;12081;48.614;10.226;2023-05-19T01:40:49;9.50;99.90
23801;DHT22;12081;48.614;10.226;2023-05-19T01:43:34;9.10;99.90
23801;DHT22;12081;48.614;10.226;2023-05-19T01:46:20;9.20;99.90
23801;DHT22;12081;48.614;10.226;2023-05-19T01:49:05;9.40;99.90
23801;DHT22;12081;48.614;10.226;2023-05-19T02:00:50;9.60;99.90
23801;DHT22;12081;48.614;10.226;2023-05-19T02:07:11;9.60;99.90
23801;DHT22;12081;48.614;10.226;2023-05-19T02:10:09;9.40;99.90
23801;DHT22;12081;48.614;10.226;2023-05-19T02:13:00;9.50;99.90
23801;DHT22;12081;48.614;10.226;2023-05-19T02:15:44;9.40;99.90
23801;DHT22;12081;48.614;10.226;2023-05-19T02:18:31;9.60;99.90
23801;DHT22;12081;48.614;10.226;2023-05-19T02:21:16;9.70;99.90
23801;DHT22;12081;48.614;10.226;2023-05-19T02:26:44;9.20;99.90
23801;DHT22;12081;48.614;10.226;2023-05-19T02:29:29;9.30;99.90
23801;DHT22;12081;48.614;10.226;2023-05-19T02:32:16;9.50;99.90
23801;DHT22;12081;48.614;10.226;2023-05-19T02:35:01;9.50;99.90
23801;DHT22;12081;48.614;10.226;2023-05-19T02:37:45;9.40;99.90
23801;DHT22;12081;48.614;10.226;2023-05-19T03:32:41;9.40;99.90
23801;DHT22;12081;48.614;10.226;2023-05-19T03:49:20;9.20;99.90
23801;DHT22;12081;48.614;10.226;2023-05-19T03:52:58;9.10;99.90
23801;DHT22;12081;48.614;10.226;2023-05-19T03:55:56;9.00;99.90
23801;DHT22;12081;48.614;10.226;2023-05-19T03:59:10;9.10;99.90
23801;DHT22;12081;48.614;10.226;2023-05-19T04:02:23;8.90;99.90
23801;DHT22;12081;48.614;10.226;2023-05-19T04:05:13;8.90;99.90
23801;DHT22;12081;48.614;10.226;2023-05-19T04:08:23;8.40;99.90
23801;DHT22;12081;48.614;10.226;2023-05-19T04:11:09;8.10;99.90
23801;DHT22;12081;48.614;10.226;2023-05-19T04:14:01;8.70;99.90
23801;DHT22;12081;48.614;10.226;2023-05-19T04:17:09;8.60;99.90
23801;DHT22;12081;48.614;10.226;2023-05-19T04:19:52;9.00;99.90
23801;DHT22;12081;48.614;10.226;2023-05-19T05:34:25;11.10;99.90
23801;DHT22;12081;48.614;10.226;2023-05-19T05:37:09;11.10;99.90
23801;DHT22;12081;48.614;10.226;2023-05-19T05:39:53;11.40;99.90
23801;DHT22;12081;48.614;10.226;2023-05-19T05:42:37;11.10;99.90
23801;DHT22;12081;48.614;10.226;2023-05-19T05:45:21;11.20;99.90
23801;DHT22;12081;48.614;10.226;2023-05-19T05:48:06;14.10;99.90
23801;DHT22;12081;48.614;10.226;2023-05-19T05:50:51;11.40;99.90
23801;DHT22;12081;48.614;10.226;2023-05-19T05:53:40;11.40;99.90
23801;DHT22;12081;48.614;10.226;2023-05-19T05:56:25;11.70;99.90
23801;DHT22;12081;48.614;10.226;2023-05-19T05:59:10;11.40;99.90
23801;DHT22;12081;48.614;10.226;2023-05-19T06:01:54;11.40;99.90
23801;DHT22;12081;48.614;10.226;2023-05-19T06:04:38;11.50;99.90
23801;DHT22;12081;48.614;10.226;2023-05-19T06:07:23;11.40;99.90
23801;DHT22;12081;48.614;10.226;2023-05-19T06:10:08;11.50;99.90
23801;DHT22;12081;48.614;10.226;2023-05-19T06:12:53;11.40;99.90
23801;DHT22;12081;48.614;10.226;2023-05-19T06:15:37;11.50;99.90
23801;DHT22;12081;48.614;10.226;2023-05-19T06:18:21;11.70;99.90
23801;DHT22;12081;48.614;10.226;2023-05-19T06:21:05;12.80;99.90
23801;DHT22;12081;48.614;10.226;2023-05-19T06:23:50;12.00;99.90
23801;DHT22;12081;48.614;10.226;2023-05-19T06:26:34;11.90;99.90
23801;DHT22;12081;48.614;10.226;2023-05-19T06:29:19;11.80;99.90
23801;DHT22;12081;48.614;10.226;2023-05-19T06:32:03;11.90;99.90
23801;DHT22;12081;48.614;10.226;2023-05-19T06:34:48;11.40;99.90
23801;DHT22;12081;48.614;10.226;2023-05-19T06:37:36;11.30;99.90
23801;DHT22;12081;48.614;10.226;2023-05-19T06:40:21;12.20;99.90
23801;DHT22;12081;48.614;10.226;2023-05-19T06:43:06;11.60;99.90
23801;DHT22;12081;48.614;10.226;2023-05-19T06:45:50;12.40;99.90
23801;DHT22;12081;48.614;10.226;2023-05-19T06:48:34;11.60;99.90
23801;DHT22;12081;48.614;10.226;2023-05-19T06:54:05;11.60;99.90
23801;DHT22;12081;48.614;10.226;2023-05-19T06:56:49;12.00;99.90
23801;DHT22;12081;48.614;10.226;2023-05-19T06:59:33;12.20;99.90
23801;DHT22;12081;48.614;10.226;2023-05-19T07:02:17;14.40;99.90
23801;DHT22;12081;48.614;10.226;2023-05-19T07:07:46;12.00;99.90
23801;DHT22;12081;48.614;10.226;2023-05-19T07:10:30;14.30;99.90
23801;DHT22;12081;48.614;10.226;2023-05-19T07:13:28;12.20;99.90
23801;DHT22;12081;48.614;10.226;2023-05-19T07:16:11;11.90;99.90
23801;DHT22;12081;48.614;10.226;2023-05-19T07:18:56;12.30;99.90
23801;DHT22;12081;48.614;10.226;2023-05-19T07:21:40;12.20;99.90
23801;DHT22;12081;48.614;10.226;2023-05-19T07:29:55;12.40;99.90
23801;DHT22;12081;48.614;10.226;2023-05-19T07:32:39;12.50;99.90
23801;DHT22;12081;48.614;10.226;2023-05-19T07:35:23;12.40;99.90
23801;DHT22;12081;48.614;10.226;2023-05-19T07:40:52;12.80;99.90
23801;DHT22;12081;48.614;10.226;2023-05-19T07:43:36;13.20;99.90
23801;DHT22;12081;48.614;10.226;2023-05-19T07:46:20;13.00;99.90
23801;DHT22;12081;48.614;10.226;2023-05-19T07:49:05;16.20;99.90
23801;DHT22;12081;48.614;10.226;2023-05-19T07:51:49;15.50;99.90
23801;DHT22;12081;48.614;10.226;2023-05-19T07:54:34;13.90;99.90
23801;DHT22;12081;48.614;10.226;2023-05-19T07:57:18;15.90;99.90
23801;DHT22;12081;48.614;10.226;2023-05-19T08:00:03;15.90;99.90
23801;DHT22;12081;48.614;10.226;2023-05-19T08:05:36;14.40;99.90
23801;DHT22;12081;48.614;10.226;2023-05-19T08:08:20;14.90;99.90
23801;DHT22;12081;48.614;10.226;2023-05-19T08:11:05;15.90;99.90
23801;DHT22;12081;48.614;10.226;2023-05-19T08:13:49;14.20;99.90
23801;DHT22;12081;48.614;10.226;2023-05-19T08:16:34;15.40;99.90
23801;DHT22;12081;48.614;10.226;2023-05-19T08:19:18;15.40;99.90
23801;DHT22;12081;48.614;10.226;2023-05-19T08:22:02;15.40;99.90
23801;DHT22;12081;48.614;10.226;2023-05-19T08:24:47;15.30;99.90
23801;DHT22;12081;48.614;10.226;2023-05-19T08:27:32;16.10;99.90
23801;DHT22;12081;48.614;10.226;2023-05-19T08:33:01;16.50;99.90
23801;DHT22;12081;48.614;10.226;2023-05-19T08:35:46;16.80;98.30
23801;DHT22;12081;48.614;10.226;2023-05-19T08:38:30;17.00;96.30
23801;DHT22;12081;48.614;10.226;2023-05-19T08:41:15;17.10;97.00
23801;DHT22;12081;48.614;10.226;2023-05-19T08:43:59;16.40;95.90
23801;DHT22;12081;48.614;10.226;2023-05-19T08:46:43;17.50;96.00
23801;DHT22;12081;48.614;10.226;2023-05-19T08:49:31;17.30;95.40
23801;DHT22;12081;48.614;10.226;2023-05-19T08:52:24;17.30;95.40
23801;DHT22;12081;48.614;10.226;2023-05-19T08:55:17;16.80;94.00
23801;DHT22;12081;48.614;10.226;2023-05-19T08:58:04;18.50;94.10
23801;DHT22;12081;48.614;10.226;2023-05-19T09:00:48;17.30;92.20
23801;DHT22;12081;48.614;10.226;2023-05-19T09:03:34;18.70;92.20
23801;DHT22;12081;48.614;10.226;2023-05-19T09:06:22;16.90;93.20
23801;DHT22;12081;48.614;10.226;2023-05-19T09:09:07;16.10;93.30
23801;DHT22;12081;48.614;10.226;2023-05-19T09:11:51;16.60;94.00
23801;DHT22;12081;48.614;10.226;2023-05-19T09:14:36;16.50;93.90
23801;DHT22;12081;48.614;10.226;2023-05-19T09:17:21;16.10;94.20
23801;DHT22;12081;48.614;10.226;2023-05-19T09:20:06;17.50;94.30
23801;DHT22;12081;48.614;10.226;2023-05-19T09:22:54;16.00;94.00
23801;DHT22;12081;48.614;10.226;2023-05-19T09:26:04;15.80;94.10
23801;DHT22;12081;48.614;10.226;2023-05-19T09:28:57;15.60;95.90
23801;DHT22;12081;48.614;10.226;2023-05-19T09:34:40;15.70;96.10
23801;DHT22;12081;48.614;10.226;2023-05-19T09:37:26;15.10;96.70
23801;DHT22;12081;48.614;10.226;2023-05-19T09:40:14;15.90;97.10
23801;DHT22;12081;48.614;10.226;2023-05-19T09:42:59;15.40;97.20
23801;DHT22;12081;48.614;10.226;2023-05-19T09:45:43;14.80;96.80
23801;DHT22;12081;48.614;10.226;2023-05-19T09:48:27;15.40;96.90
23801;DHT22;12081;48.614;10.226;2023-05-19T09:51:13;16.40;96.30
23801;DHT22;12081;48.614;10.226;2023-05-19T09:53:57;15.90;95.80
23801;DHT22;12081;48.614;10.226;2023-05-19T09:56:42;16.20;95.70
23801;DHT22;12081;48.614;10.226;2023-05-19T09:59:28;15.90;94.90
23801;DHT22;12081;48.614;10.226;2023-05-19T10:02:15;14.80;95.10
23801;DHT22;12081;48.614;10.226;2023-05-19T10:05:02;14.70;95.50
23801;DHT22;12081;48.614;10.226;2023-05-19T10:07:52;14.60;96.70
23801;DHT22;12081;48.614;10.226;2023-05-19T10:10:38;14.70;96.40
23801;DHT22;12081;48.614;10.226;2023-05-19T10:13:23;14.60;95.50
23801;DHT22;12081;48.614;10.226;2023-05-19T10:16:08;14.30;96.10
23801;DHT22;12081;48.614;10.226;2023-05-19T10:18:54;14.30;96.50
23801;DHT22;12081;48.614;10.226;2023-05-19T10:21:41;13.80;96.30
23801;DHT22;12081;48.614;10.226;2023-05-19T10:27:12;14.10;98.50
23801;DHT22;12081;48.614;10.226;2023-05-19T10:30:01;14.00;98.60
23801;DHT22;12081;48.614;10.226;2023-05-19T10:32:47;13.90;99.10
23801;DHT22;12081;48.614;10.226;2023-05-19T10:38:48;13.50;99.90
23801;DHT22;12081;48.614;10.226;2023-05-19T10:44:49;13.80;99.90
23801;DHT22;12081;48.614;10.226;2023-05-19T10:47:36;13.90;99.90
23801;DHT22;12081;48.614;10.226;2023-05-19T10:50:20;15.70;99.90
23801;DHT22;12081;48.614;10.226;2023-05-19T10:53:13;14.60;99.90
23801;DHT22;12081;48.614;10.226;2023-05-19T10:56:00;15.10;99.90
23801;DHT22;12081;48.614;10.226;2023-05-19T10:58:49;16.10;99.90
23801;DHT22;12081;48.614;10.226;2023-05-19T11:01:35;15.90;99.90
23801;DHT22;12081;48.614;10.226;2023-05-19T11:04:49;14.70;99.90
23801;DHT22;12081;48.614;10.226;2023-05-19T11:07:34;14.40;99.90
23801;DHT22;12081;48.614;10.226;2023-05-19T11:10:22;16.10;99.90
23801;DHT22;12081;48.614;10.226;2023-05-19T11:13:20;14.80;99.90
23801;DHT22;12081;48.614;10.226;2023-05-19T11:16:09;14.60;99.90
23801;DHT22;12081;48.614;10.226;2023-05-19T11:18:54;14.50;99.90
23801;DHT22;12081;48.614;10.226;2023-05-19T11:21:51;14.20;99.90
23801;DHT22;12081;48.614;10.226;2023-05-19T11:24:42;14.00;99.90
23801;DHT22;12081;48.614;10.226;2023-05-19T11:27:34;13.80;99.90
23801;DHT22;12081;48.614;10.226;2023-05-19T11:30:20;13.70;99.90
23801;DHT22;12081;48.614;10.226;2023-05-19T11:33:05;14.30;99.90
23801;DHT22;12081;48.614;10.226;2023-05-19T11:35:50;13.50;99.90
23801;DHT22;12081;48.614;10.226;2023-05-19T11:38:34;14.20;99.90
23801;DHT22;12081;48.614;10.226;2023-05-19T11:41:18;13.70;99.90
23801;DHT22;12081;48.614;10.226;2023-05-19T11:44:02;15.30;99.90
23801;DHT22;12081;48.614;10.226;2023-05-19T11:46:46;14.20;99.90
23801;DHT22;12081;48.614;10.226;2023-05-19T11:49:30;15.10;99.90
23801;DHT22;12081;48.614;10.226;2023-05-19T11:52:14;15.10;99.90
23801;DHT22;12081;48.614;10.226;2023-05-19T11:55:01;15.20;99.90
23801;DHT22;12081;48.614;10.226;2023-05-19T11:57:55;15.40;99.90
23801;DHT22;12081;48.614;10.226;2023-05-19T12:00:43;15.10;99.90
23801;DHT22;12081;48.614;10.226;2023-05-19T12:03:30;16.40;99.90
23801;DHT22;12081;48.614;10.226;2023-05-19T12:06:15;16.40;99.90
23801;DHT22;12081;48.614;10.226;2023-05-19T12:09:00;14.50;99.90
23801;DHT22;12081;48.614;10.226;2023-05-19T12:11:45;14.70;99.90
23801;DHT22;12081;48.614;10.226;2023-05-19T12:14:30;14.40;99.90
23801;DHT22;12081;48.614;10.226;2023-05-19T12:17:16;15.00;99.90
23801;DHT22;12081;48.614;10.226;2023-05-19T12:20:01;14.10;99.90
23801;DHT22;12081;48.614;10.226;2023-05-19T12:22:49;14.00;99.90
23801;DHT22;12081;48.614;10.226;2023-05-19T12:25:34;13.80;99.90
23801;DHT22;12081;48.614;10.226;2023-05-19T12:28:19;13.90;99.90
23801;DHT22;12081;48.614;10.226;2023-05-19T12:31:03;14.00;99.90
23801;DHT22;12081;48.614;10.226;2023-05-19T12:33:48;14.10;99.90
23801;DHT22;12081;48.614;10.226;2023-05-19T12:36:36;16.10;99.90
23801;DHT22;12081;48.614;10.226;2023-05-19T12:39:19;14.40;99.90
23801;DHT22;12081;48.614;10.226;2023-05-19T12:42:09;14.50;99.90
23801;DHT22;12081;48.614;10.226;2023-05-19T12:44:53;15.10;99.90
23801;DHT22;12081;48.614;10.226;2023-05-19T12:47:37;15.00;99.90
23801;DHT22;12081;48.614;10.226;2023-05-19T12:50:21;16.10;99.90
23801;DHT22;12081;48.614;10.226;2023-05-19T12:53:13;15.40;99.90
23801;DHT22;12081;48.614;10.226;2023-05-19T12:55:58;15.40;99.90
23801;DHT22;12081;48.614;10.226;2023-05-19T12:58:42;17.70;99.90
23801;DHT22;12081;48.614;10.226;2023-05-19T13:01:28;15.50;99.60
23801;DHT22;12081;48.614;10.226;2023-05-19T13:04:12;15.90;99.70
23801;DHT22;12081;48.614;10.226;2023-05-19T13:06:56;16.30;99.90
23801;DHT22;12081;48.614;10.226;2023-05-19T13:09:40;14.80;99.60
23801;DHT22;12081;48.614;10.226;2023-05-19T13:12:25;15.80;98.60
23801;DHT22;12081;48.614;10.226;2023-05-19T13:15:09;15.50;99.40
23801;DHT22;12081;48.614;10.226;2023-05-19T13:18:07;15.50;99.50
23801;DHT22;12081;48.614;10.226;2023-05-19T13:20:53;15.50;99.10
23801;DHT22;12081;48.614;10.226;2023-05-19T13:23:37;15.70;99.90
23801;DHT22;12081;48.614;10.226;2023-05-19T13:26:21;15.40;99.90
23801;DHT22;12081;48.614;10.226;2023-05-19T13:29:06;14.00;99.90
23801;DHT22;12081;48.614;10.226;2023-05-19T13:31:51;15.60;99.90
23801;DHT22;12081;48.614;10.226;2023-05-19T13:34:35;15.70;99.90
23801;DHT22;12081;48.614;10.226;2023-05-19T13:37:19;17.10;99.90
23801;DHT22;12081;48.614;10.226;2023-05-19T13:40:03;15.90;99.90
23801;DHT22;12081;48.614;10.226;2023-05-19T13:42:50;16.00;98.90
23801;DHT22;12081;48.614;10.226;2023-05-19T13:45:34;15.90;98.90
23801;DHT22;12081;48.614;10.226;2023-05-19T13:48:18;15.80;99.50
23801;DHT22;12081;48.614;10.226;2023-05-19T13:51:02;15.30;99.90
23801;DHT22;12081;48.614;10.226;2023-05-19T13:53:46;15.20;99.90
23801;DHT22;12081;48.614;10.226;2023-05-19T13:56:30;16.00;99.90
23801;DHT22;12081;48.614;10.226;2023-05-19T13:59:15;15.50;99.90
23801;DHT22;12081;48.614;10.226;2023-05-19T14:02:02;16.10;99.90
23801;DHT22;12081;48.614;10.226;2023-05-19T14:04:46;15.60;99.90
23801;DHT22;12081;48.614;10.226;2023-05-19T14:07:31;16.00;99.90
23801;DHT22;12081;48.614;10.226;2023-05-19T14:10:17;15.80;99.50
23801;DHT22;12081;48.614;10.226;2023-05-19T14:13:01;15.90;99.60
23801;DHT22;12081;48.614;10.226;2023-05-19T14:15:45;16.10;98.60
23801;DHT22;12081;48.614;10.226;2023-05-19T14:18:29;16.10;98.50
23801;DHT22;12081;48.614;10.226;2023-05-19T14:21:15;16.50;98.90
23801;DHT22;12081;48.614;10.226;2023-05-19T14:23:59;16.00;98.80
23801;DHT22;12081;48.614;10.226;2023-05-19T14:26:44;16.20;99.10
23801;DHT22;12081;48.614;10.226;2023-05-19T14:29:28;16.30;97.90
23801;DHT22;12081;48.614;10.226;2023-05-19T14:32:14;16.30;98.10
23801;DHT22;12081;48.614;10.226;2023-05-19T14:34:58;16.50;98.20
23801;DHT22;12081;48.614;10.226;2023-05-19T14:37:42;16.30;98.50
23801;DHT22;12081;48.614;10.226;2023-05-19T14:40:26;16.30;98.20
23801;DHT22;12081;48.614;10.226;2023-05-19T14:43:10;16.10;97.30
23801;DHT22;12081;48.614;10.226;2023-05-19T14:45:55;16.30;97.30
23801;DHT22;12081;48.614;10.226;2023-05-19T14:48:39;16.80;97.50
23801;DHT22;12081;48.614;10.226;2023-05-19T14:51:24;16.40;97.90
23801;DHT22;12081;48.614;10.226;2023-05-19T14:54:08;16.20;97.30
23801;DHT22;12081;48.614;10.226;2023-05-19T14:56:52;16.70;97.00
23801;DHT22;12081;48.614;10.226;2023-05-19T14:59:36;16.50;97.00
23801;DHT22;12081;48.614;10.226;2023-05-19T15:02:21;16.90;96.70
23801;DHT22;12081;48.614;10.226;2023-05-19T15:05:05;16.80;96.30
23801;DHT22;12081;48.614;10.226;2023-05-19T15:07:50;17.00;95.20
23801;DHT22;12081;48.614;10.226;2023-05-19T15:10:34;17.10;97.00
23801;DHT22;12081;48.614;10.226;2023-05-19T15:13:18;17.10;95.60
23801;DHT22;12081;48.614;10.226;2023-05-19T15:16:05;17.60;95.80
23801;DHT22;12081;48.614;10.226;2023-05-19T15:18:53;17.50;95.80
23801;DHT22;12081;48.614;10.226;2023-05-19T15:21:37;17.70;94.70
23801;DHT22;12081;48.614;10.226;2023-05-19T15:24:22;17.30;94.10
23801;DHT22;12081;48.614;10.226;2023-05-19T15:27:07;17.70;95.30
23801;DHT22;12081;48.614;10.226;2023-05-19T15:29:52;17.40;95.10
23801;DHT22;12081;48.614;10.226;2023-05-19T15:32:36;17.70;94.30
23801;DHT22;12081;48.614;10.226;2023-05-19T15:35:20;19.80;94.90
23801;DHT22;12081;48.614;10.226;2023-05-19T15:38:04;17.80;93.80
23801;DHT22;12081;48.614;10.226;2023-05-19T15:40:49;17.90;93.30
23801;DHT22;12081;48.614;10.226;2023-05-19T15:43:33;17.90;93.40
23801;DHT22;12081;48.614;10.226;2023-05-19T15:46:17;17.90;94.30
23801;DHT22;12081;48.614;10.226;2023-05-19T15:49:02;18.00;93.60
23801;DHT22;12081;48.614;10.226;2023-05-19T15:51:46;18.00;93.90
23801;DHT22;12081;48.614;10.226;2023-05-19T15:54:31;17.80;94.80
23801;DHT22;12081;48.614;10.226;2023-05-19T15:57:15;17.80;94.10
23801;DHT22;12081;48.614;10.226;2023-05-19T15:59:59;17.30;94.00
23801;DHT22;12081;48.614;10.226;2023-05-19T16:02:43;17.30;94.10
23801;DHT22;12081;48.614;10.226;2023-05-19T16:05:27;17.60;95.70
23801;DHT22;12081;48.614;10.226;2023-05-19T16:08:11;17.50;95.30
23801;DHT22;12081;48.614;10.226;2023-05-19T16:10:55;17.50;94.60
23801;DHT22;12081;48.614;10.226;2023-05-19T16:13:39;17.50;94.30
23801;DHT22;12081;48.614;10.226;2023-05-19T16:16:23;17.30;94.90
23801;DHT22;12081;48.614;10.226;2023-05-19T16:19:08;17.20;95.00
23801;DHT22;12081;48.614;10.226;2023-05-19T16:21:52;17.20;94.40
23801;DHT22;12081;48.614;10.226;2023-05-19T16:24:36;17.00;94.60
23801;DHT22;12081;48.614;10.226;2023-05-19T16:27:21;17.00;95.60
23801;DHT22;12081;48.614;10.226;2023-05-19T16:30:06;17.00;95.80
23801;DHT22;12081;48.614;10.226;2023-05-19T16:32:50;16.90;96.20
23801;DHT22;12081;48.614;10.226;2023-05-19T16:35:36;16.90;97.00
23801;DHT22;12081;48.614;10.226;2023-05-19T16:38:21;16.90;96.40
23801;DHT22;12081;48.614;10.226;2023-05-19T16:41:10;17.50;97.20
23801;DHT22;12081;48.614;10.226;2023-05-19T16:43:54;16.80;97.30
23801;DHT22;12081;48.614;10.226;2023-05-19T16:46:38;17.20;97.40
23801;DHT22;12081;48.614;10.226;2023-05-19T16:49:22;16.40;97.70
23801;DHT22;12081;48.614;10.226;2023-05-19T16:52:06;16.30;98.50
23801;DHT22;12081;48.614;10.226;2023-05-19T16:54:50;16.30;99.40
23801;DHT22;12081;48.614;10.226;2023-05-19T16:57:35;17.00;99.60
23801;DHT22;12081;48.614;10.226;2023-05-19T17:00:19;16.30;98.90
23801;DHT22;12081;48.614;10.226;2023-05-19T17:03:03;16.60;98.90
23801;DHT22;12081;48.614;10.226;2023-05-19T17:05:47;16.40;98.80
23801;DHT22;12081;48.614;10.226;2023-05-19T17:08:31;16.30;98.50
23801;DHT22;12081;48.614;10.226;2023-05-19T17:11:15;16.20;99.10
23801;DHT22;12081;48.614;10.226;2023-05-19T17:13:59;16.10;99.90
23801;DHT22;12081;48.614;10.226;2023-05-19T17:16:47;16.00;99.90
23801;DHT22;12081;48.614;10.226;2023-05-19T17:19:31;16.30;99.90
23801;DHT22;12081;48.614;10.226;2023-05-19T17:22:15;16.10;99.90
23801;DHT22;12081;48.614;10.226;2023-05-19T17:25:00;16.30;99.90
23801;DHT22;12081;48.614;10.226;2023-05-19T17:27:45;16.20;99.90
23801;DHT22;12081;48.614;10.226;2023-05-19T17:30:29;16.10;99.90
23801;DHT22;12081;48.614;10.226;2023-05-19T17:33:14;16.30;99.90
23801;DHT22;12081;48.614;10.226;2023-05-19T17:36:01;16.20;99.90
23801;DHT22;12081;48.614;10.226;2023-05-19T17:38:46;16.40;99.90
23801;DHT22;12081;48.614;10.226;2023-05-19T17:41:30;16.00;99.90
23801;DHT22;12081;48.614;10.226;2023-05-19T17:44:14;16.30;99.90
23801;DHT22;12081;48.614;10.226;2023-05-19T17:46:59;16.10;99.90
23801;DHT22;12081;48.614;10.226;2023-05-19T17:49:45;16.70;99.90
23801;DHT22;12081;48.614;10.226;2023-05-19T17:52:29;15.90;99.90
23801;DHT22;12081;48.614;10.226;2023-05-19T17:55:13;15.40;99.90
23801;DHT22;12081;48.614;10.226;2023-05-19T17:57:58;15.30;99.90
23801;DHT22;12081;48.614;10.226;2023-05-19T18:00:43;15.20;99.90
23801;DHT22;12081;48.614;10.226;2023-05-19T18:03:27;15.10;99.90
23801;DHT22;12081;48.614;10.226;2023-05-19T18:06:11;15.00;99.90
23801;DHT22;12081;48.614;10.226;2023-05-19T18:08:57;15.30;99.90
23801;DHT22;12081;48.614;10.226;2023-05-19T18:11:42;15.00;99.90
23801;DHT22;12081;48.614;10.226;2023-05-19T18:14:26;14.90;99.90
23801;DHT22;12081;48.614;10.226;2023-05-19T18:17:10;14.90;99.90
23801;DHT22;12081;48.614;10.226;2023-05-19T18:19:54;14.80;99.90
23801;DHT22;12081;48.614;10.226;2023-05-19T18:22:39;14.70;99.90
23801;DHT22;12081;48.614;10.226;2023-05-19T18:25:23;15.20;99.90
23801;DHT22;12081;48.614;10.226;2023-05-19T18:28:07;14.60;99.90
23801;DHT22;12081;48.614;10.226;2023-05-19T18:31:03;14.50;99.90
23801;DHT22;12081;48.614;10.226;2023-05-19T18:33:48;14.50;99.90
23801;DHT22;12081;48.614;10.226;2023-05-19T18:36:32;14.40;99.90
23801;DHT22;12081;48.614;10.226;2023-05-19T18:39:18;14.40;99.90
23801;DHT22;12081;48.614;10.226;2023-05-19T18:42:03;15.60;99.90
23801;DHT22;12081;48.614;10.226;2023-05-19T18:44:47;14.40;99.90
23801;DHT22;12081;48.614;10.226;2023-05-19T18:47:33;15.50;99.90
23801;DHT22;12081;48.614;10.226;2023-05-19T18:50:18;14.40;99.90
23801;DHT22;12081;48.614;10.226;2023-05-19T18:53:02;14.50;99.90
23801;DHT22;12081;48.614;10.226;2023-05-19T18:55:46;14.20;99.90
23801;DHT22;12081;48.614;10.226;2023-05-19T18:58:31;15.00;99.90
23801;DHT22;12081;48.614;10.226;2023-05-19T19:01:15;14.20;99.90
23801;DHT22;12081;48.614;10.226;2023-05-19T19:03:59;14.90;99.90
23801;DHT22;12081;48.614;10.226;2023-05-19T19:06:45;14.20;99.90
23801;DHT22;12081;48.614;10.226;2023-05-19T19:09:30;14.10;99.90
23801;DHT22;12081;48.614;10.226;2023-05-19T19:12:14;14.90;99.90
23801;DHT22;12081;48.614;10.226;2023-05-19T19:14:58;13.90;99.90
23801;DHT22;12081;48.614;10.226;2023-05-19T19:17:43;15.40;99.90
23801;DHT22;12081;48.614;10.226;2023-05-19T19:20:28;13.90;99.90
23801;DHT22;12081;48.614;10.226;2023-05-19T19:23:12;15.10;99.90
23801;DHT22;12081;48.614;10.226;2023-05-19T19:25:56;14.40;99.90
23801;DHT22;12081;48.614;10.226;2023-05-19T19:28:40;15.60;99.90
23801;DHT22;12081;48.614;10.226;2023-05-19T19:31:24;13.80;99.90
23801;DHT22;12081;48.614;10.226;2023-05-19T19:34:10;14.20;99.90
23801;DHT22;12081;48.614;10.226;2023-05-19T19:36:54;13.70;99.90
23801;DHT22;12081;48.614;10.226;2023-05-19T19:39:38;13.70;99.90
23801;DHT22;12081;48.614;10.226;2023-05-19T19:42:22;13.60;99.90
23801;DHT22;12081;48.614;10.226;2023-05-19T19:45:07;13.60;99.90
23801;DHT22;12081;48.614;10.226;2023-05-19T19:47:51;13.50;99.90
23801;DHT22;12081;48.614;10.226;2023-05-19T19:50:35;13.50;99.90
23801;DHT22;12081;48.614;10.226;2023-05-19T19:53:19;13.50;99.90
23801;DHT22;12081;48.614;10.226;2023-05-19T19:56:04;13.50;99.90
23801;DHT22;12081;48.614;10.226;2023-05-19T19:58:49;13.70;99.90
23801;DHT22;12081;48.614;10.226;2023-05-19T20:01:33;13.50;99.90
23801;DHT22;12081;48.614;10.226;2023-05-19T20:04:17;13.40;99.90
23801;DHT22;12081;48.614;10.226;2023-05-19T20:07:01;13.60;99.90
23801;DHT22;12081;48.614;10.226;2023-05-19T20:09:45;14.80;99.90
23801;DHT22;12081;48.614;10.226;2023-05-19T20:12:30;13.50;99.90
23801;DHT22;12081;48.614;10.226;2023-05-19T20:15:14;13.50;99.90
23801;DHT22;12081;48.614;10.226;2023-05-19T20:17:59;13.50;99.90
23801;DHT22;12081;48.614;10.226;2023-05-19T20:20:43;13.60;99.90
23801;DHT22;12081;48.614;10.226;2023-05-19T20:23:27;13.50;99.90
23801;DHT22;12081;48.614;10.226;2023-05-19T20:26:11;13.50;99.90
23801;DHT22;12081;48.614;10.226;2023-05-19T20:28:55;14.20;99.90
23801;DHT22;12081;48.614;10.226;2023-05-19T20:31:39;14.30;99.90
23801;DHT22;12081;48.614;10.226;2023-05-19T20:34:24;14.20;99.90
23801;DHT22;12081;48.614;10.226;2023-05-19T20:37:08;14.20;99.90
23801;DHT22;12081;48.614;10.226;2023-05-19T20:39:52;14.80;99.90
23801;DHT22;12081;48.614;10.226;2023-05-19T20:42:38;13.70;99.90
23801;DHT22;12081;48.614;10.226;2023-05-19T20:45:22;16.20;99.90